sensor_id;sensor_type;location;lat;lon;timestamp;temperature;humidity
13436;DHT22;6790;49.520;8.504;2023-03-01T00:00:40;-1.90;99.90
13436;DHT22;6790;49.520;8.504;2023-03-01T00:03:06;-1.80;99.90
13436;DHT22;6790;49.520;8.504;2023-03-01T00:05:32;-1.50;99.90
13436;DHT22;6790;49.520;8.504;2023-03-01T00:07:58;-1.60;99.90
13436;DHT22;6790;49.520;8.504;2023-03-01T00:10:24;-1.10;99.90
13436;DHT22;6790;49.520;8.504;2023-03-01T00:12:49;-1.20;99.90
13436;DHT22;6790;49.520;8.504;2023-03-01T00:15:15;-1.30;99.90
13436;DHT22;6790;49.520;8.504;2023-03-01T00:17:41;-1.30;99.90
13436;DHT22;6790;49.520;8.504;2023-03-01T00:20:07;-1.40;99.90
13436;DHT22;6790;49.520;8.504;2023-03-01T00:22:36;-1.40;99.90
13436;DHT22;6790;49.520;8.504;2023-03-01T00:25:02;-1.50;99.90
13436;DHT22;6790;49.520;8.504;2023-03-01T00:27:28;-1.60;99.90
13436;DHT22;6790;49.520;8.504;2023-03-01T00:29:54;-1.60;99.90
13436;DHT22;6790;49.520;8.504;2023-03-01T00:32:20;-1.70;99.90
13436;DHT22;6790;49.520;8.504;2023-03-01T00:34:45;-1.70;99.90
13436;DHT22;6790;49.520;8.504;2023-03-01T00:37:21;-1.70;99.90
13436;DHT22;6790;49.520;8.504;2023-03-01T00:39:48;-1.80;99.90
13436;DHT22;6790;49.520;8.504;2023-03-01T00:42:14;-1.70;99.90
13436;DHT22;6790;49.520;8.504;2023-03-01T00:44:40;-1.80;99.90
13436;DHT22;6790;49.520;8.504;2023-03-01T00:47:06;-1.80;99.90
13436;DHT22;6790;49.520;8.504;2023-03-01T00:49:32;-1.80;99.90
13436;DHT22;6790;49.520;8.504;2023-03-01T00:51:57;-1.90;99.90
13436;DHT22;6790;49.520;8.504;2023-03-01T00:54:23;-1.90;99.90
13436;DHT22;6790;49.520;8.504;2023-03-01T00:56:49;-1.80;99.90
13436;DHT22;6790;49.520;8.504;2023-03-01T00:59:14;-1.80;99.90
13436;DHT22;6790;49.520;8.504;2023-03-01T01:01:40;-1.90;99.90
13436;DHT22;6790;49.520;8.504;2023-03-01T01:04:09;-2.00;99.90
13436;DHT22;6790;49.520;8.504;2023-03-01T01:06:39;-2.10;99.90
13436;DHT22;6790;49.520;8.504;2023-03-01T01:09:11;-2.20;99.90
13436;DHT22;6790;49.520;8.504;2023-03-01T01:11:46;-2.20;99.90
13436;DHT22;6790;49.520;8.504;2023-03-01T01:14:13;-2.20;99.90
13436;DHT22;6790;49.520;8.504;2023-03-01T01:16:40;-2.20;99.90
13436;DHT22;6790;49.520;8.504;2023-03-01T01:19:06;-2.30;99.90
13436;DHT22;6790;49.520;8.504;2023-03-01T01:21:31;-2.40;99.90
13436;DHT22;6790;49.520;8.504;2023-03-01T01:23:57;-2.40;99.90
13436;DHT22;6790;49.520;8.504;2023-03-01T01:26:25;-2.50;99.90
13436;DHT22;6790;49.520;8.504;2023-03-01T01:28:53;-2.50;99.90
13436;DHT22;6790;49.520;8.504;2023-03-01T01:31:20;-2.40;99.90
13436;DHT22;6790;49.520;8.504;2023-03-01T01:33:49;-2.00;99.90
13436;DHT22;6790;49.520;8.504;2023-03-01T01:36:16;-1.90;99.90
13436;DHT22;6790;49.520;8.504;2023-03-01T01:38:42;-1.70;99.90
13436;DHT22;6790;49.520;8.504;2023-03-01T01:41:08;-1.70;99.90
13436;DHT22;6790;49.520;8.504;2023-03-01T01:43:48;-1.40;99.90
13436;DHT22;6790;49.520;8.504;2023-03-01T01:46:37;-1.40;99.90
13436;DHT22;6790;49.520;8.504;2023-03-01T01:49:19;-1.50;99.90
13436;DHT22;6790;49.520;8.504;2023-03-01T01:51:48;-1.70;99.90
13436;DHT22;6790;49.520;8.504;2023-03-01T01:54:27;-1.70;99.90
13436;DHT22;6790;49.520;8.504;2023-03-01T01:57:03;-1.70;99.90
13436;DHT22;6790;49.520;8.504;2023-03-01T01:59:34;-1.90;99.90
13436;DHT22;6790;49.520;8.504;2023-03-01T02:02:02;-2.10;99.90
13436;DHT22;6790;49.520;8.504;2023-03-01T02:04:29;-2.20;99.90
13436;DHT22;6790;49.520;8.504;2023-03-01T02:07:19;-2.30;99.90
13436;DHT22;6790;49.520;8.504;2023-03-01T02:09:49;-2.20;99.90
13436;DHT22;6790;49.520;8.504;2023-03-01T02:12:18;-2.30;99.90
13436;DHT22;6790;49.520;8.504;2023-03-01T02:14:45;-2.30;99.90
13436;DHT22;6790;49.520;8.504;2023-03-01T02:17:12;-2.20;99.90
13436;DHT22;6790;49.520;8.504;2023-03-01T02:19:53;-2.20;99.90
13436;DHT22;6790;49.520;8.504;2023-03-01T02:22:34;-2.20;99.90
13436;DHT22;6790;49.520;8.504;2023-03-01T02:25:09;-2.20;99.90
13436;DHT22;6790;49.520;8.504;2023-03-01T02:30:42;-2.20;99.90
13436;DHT22;6790;49.520;8.504;2023-03-01T02:33:29;-2.30;99.90
13436;DHT22;6790;49.520;8.504;2023-03-01T02:35:59;-2.30;99.90
13436;DHT22;6790;49.520;8.504;2023-03-01T02:38:26;-2.40;99.90
13436;DHT22;6790;49.520;8.504;2023-03-01T02:40:54;-2.40;99.90
13436;DHT22;6790;49.520;8.504;2023-03-01T02:43:21;-2.30;99.90
13436;DHT22;6790;49.520;8.504;2023-03-01T02:45:50;-2.40;99.90
13436;DHT22;6790;49.520;8.504;2023-03-01T02:48:17;-2.30;99.90
13436;DHT22;6790;49.520;8.504;2023-03-01T02:51:10;-2.30;99.90
13436;DHT22;6790;49.520;8.504;2023-03-01T02:54:10;-2.20;99.90
13436;DHT22;6790;49.520;8.504;2023-03-01T02:56:41;-2.20;99.90
13436;DHT22;6790;49.520;8.504;2023-03-01T02:59:09;-2.20;99.90
13436;DHT22;6790;49.520;8.504;2023-03-01T03:01:35;-2.30;99.90
13436;DHT22;6790;49.520;8.504;2023-03-01T03:04:11;-2.30;99.90
13436;DHT22;6790;49.520;8.504;2023-03-01T03:06:43;-2.30;99.90
13436;DHT22;6790;49.520;8.504;2023-03-01T03:09:10;-2.40;99.90
13436;DHT22;6790;49.520;8.504;2023-03-01T03:11:36;-2.40;99.90
13436;DHT22;6790;49.520;8.504;2023-03-01T03:14:02;-2.50;99.90
13436;DHT22;6790;49.520;8.504;2023-03-01T03:16:28;-2.60;99.90
13436;DHT22;6790;49.520;8.504;2023-03-01T03:18:55;-2.60;99.90
13436;DHT22;6790;49.520;8.504;2023-03-01T03:21:33;-2.70;99.90
13436;DHT22;6790;49.520;8.504;2023-03-01T03:23:59;-2.70;99.90
13436;DHT22;6790;49.520;8.504;2023-03-01T03:26:25;-2.70;99.90
13436;DHT22;6790;49.520;8.504;2023-03-01T03:28:50;-2.70;99.90
13436;DHT22;6790;49.520;8.504;2023-03-01T03:31:16;-2.70;99.90
13436;DHT22;6790;49.520;8.504;2023-03-01T03:33:42;-2.70;99.90
13436;DHT22;6790;49.520;8.504;2023-03-01T03:36:08;-2.70;99.90
13436;DHT22;6790;49.520;8.504;2023-03-01T03:38:38;-2.70;99.90
13436;DHT22;6790;49.520;8.504;2023-03-01T03:41:07;-2.60;99.90
13436;DHT22;6790;49.520;8.504;2023-03-01T03:43:35;-2.70;99.90
13436;DHT22;6790;49.520;8.504;2023-03-01T03:46:03;-2.70;99.90
13436;DHT22;6790;49.520;8.504;2023-03-01T03:48:43;-2.70;99.90
13436;DHT22;6790;49.520;8.504;2023-03-01T03:51:12;-2.80;99.90
13436;DHT22;6790;49.520;8.504;2023-03-01T03:53:41;-2.80;99.90
13436;DHT22;6790;49.520;8.504;2023-03-01T03:56:08;-2.80;99.90
13436;DHT22;6790;49.520;8.504;2023-03-01T03:58:34;-2.80;99.90
13436;DHT22;6790;49.520;8.504;2023-03-01T04:01:00;-2.80;99.90
13436;DHT22;6790;49.520;8.504;2023-03-01T04:03:29;-2.80;99.90
13436;DHT22;6790;49.520;8.504;2023-03-01T04:05:58;-2.80;99.90
13436;DHT22;6790;49.520;8.504;2023-03-01T04:08:25;-2.90;99.90
13436;DHT22;6790;49.520;8.504;2023-03-01T04:10:56;-2.80;99.90
13436;DHT22;6790;49.520;8.504;2023-03-01T04:13:23;-2.80;99.90
13436;DHT22;6790;49.520;8.504;2023-03-01T04:15:51;-2.80;99.90
13436;DHT22;6790;49.520;8.504;2023-03-01T04:18:21;-2.80;99.90
13436;DHT22;6790;49.520;8.504;2023-03-01T04:20:48;-2.70;99.90
13436;DHT22;6790;49.520;8.504;2023-03-01T04:23:18;-2.60;99.90
13436;DHT22;6790;49.520;8.504;2023-03-01T04:25:56;-2.60;99.90
13436;DHT22;6790;49.520;8.504;2023-03-01T04:28:43;-2.60;99.90
13436;DHT22;6790;49.520;8.504;2023-03-01T04:31:15;-2.50;99.90
13436;DHT22;6790;49.520;8.504;2023-03-01T04:33:48;-2.50;99.90
13436;DHT22;6790;49.520;8.504;2023-03-01T04:36:17;-2.40;99.90
13436;DHT22;6790;49.520;8.504;2023-03-01T04:38:44;-2.30;99.90
13436;DHT22;6790;49.520;8.504;2023-03-01T04:41:14;-2.10;99.90
13436;DHT22;6790;49.520;8.504;2023-03-01T04:43:41;-2.00;99.90
13436;DHT22;6790;49.520;8.504;2023-03-01T04:46:10;-1.90;99.90
13436;DHT22;6790;49.520;8.504;2023-03-01T04:48:38;-1.90;99.90
13436;DHT22;6790;49.520;8.504;2023-03-01T04:51:05;-1.80;99.90
13436;DHT22;6790;49.520;8.504;2023-03-01T04:53:32;-1.80;99.90
13436;DHT22;6790;49.520;8.504;2023-03-01T04:55:59;-1.70;99.90
13436;DHT22;6790;49.520;8.504;2023-03-01T04:58:26;-1.60;99.90
13436;DHT22;6790;49.520;8.504;2023-03-01T05:00:53;-1.60;99.90
13436;DHT22;6790;49.520;8.504;2023-03-01T05:03:20;-1.70;99.90
13436;DHT22;6790;49.520;8.504;2023-03-01T05:05:47;-1.70;99.90
13436;DHT22;6790;49.520;8.504;2023-03-01T05:08:14;-1.60;99.90
13436;DHT22;6790;49.520;8.504;2023-03-01T05:10:50;-1.60;99.90
13436;DHT22;6790;49.520;8.504;2023-03-01T05:13:17;-1.50;99.90
13436;DHT22;6790;49.520;8.504;2023-03-01T05:15:54;-1.40;99.90
13436;DHT22;6790;49.520;8.504;2023-03-01T05:18:28;-1.50;99.90
13436;DHT22;6790;49.520;8.504;2023-03-01T05:21:01;-1.50;99.90
13436;DHT22;6790;49.520;8.504;2023-03-01T05:23:32;-1.50;99.90
13436;DHT22;6790;49.520;8.504;2023-03-01T05:25:59;-1.50;99.90
13436;DHT22;6790;49.520;8.504;2023-03-01T05:28:29;-1.40;99.90
13436;DHT22;6790;49.520;8.504;2023-03-01T05:30:56;-1.40;99.90
13436;DHT22;6790;49.520;8.504;2023-03-01T05:33:22;-1.40;99.90
13436;DHT22;6790;49.520;8.504;2023-03-01T05:35:50;-1.30;99.90
13436;DHT22;6790;49.520;8.504;2023-03-01T05:38:17;-1.30;99.90
13436;DHT22;6790;49.520;8.504;2023-03-01T05:40:44;-1.20;99.90
13436;DHT22;6790;49.520;8.504;2023-03-01T05:43:12;-1.20;99.90
13436;DHT22;6790;49.520;8.504;2023-03-01T05:45:40;-1.20;99.90
13436;DHT22;6790;49.520;8.504;2023-03-01T05:48:07;-1.30;99.90
13436;DHT22;6790;49.520;8.504;2023-03-01T05:50:36;-1.20;99.90
13436;DHT22;6790;49.520;8.504;2023-03-01T05:53:14;-1.20;99.90
13436;DHT22;6790;49.520;8.504;2023-03-01T05:55:42;-1.10;99.90
13436;DHT22;6790;49.520;8.504;2023-03-01T05:58:14;-1.00;99.90
13436;DHT22;6790;49.520;8.504;2023-03-01T06:00:42;-1.10;99.90
13436;DHT22;6790;49.520;8.504;2023-03-01T06:03:10;-1.10;99.90
13436;DHT22;6790;49.520;8.504;2023-03-01T06:05:38;-1.00;99.90
13436;DHT22;6790;49.520;8.504;2023-03-01T06:08:05;-0.90;99.90
13436;DHT22;6790;49.520;8.504;2023-03-01T06:10:31;-1.00;99.90
13436;DHT22;6790;49.520;8.504;2023-03-01T06:12:57;-1.00;99.90
13436;DHT22;6790;49.520;8.504;2023-03-01T06:15:23;-1.10;99.90
13436;DHT22;6790;49.520;8.504;2023-03-01T06:17:50;-0.80;99.90
13436;DHT22;6790;49.520;8.504;2023-03-01T06:20:21;-0.80;99.90
13436;DHT22;6790;49.520;8.504;2023-03-01T06:22:49;-0.70;99.90
13436;DHT22;6790;49.520;8.504;2023-03-01T06:25:17;-0.70;99.90
13436;DHT22;6790;49.520;8.504;2023-03-01T06:27:45;-0.70;99.90
13436;DHT22;6790;49.520;8.504;2023-03-01T06:30:13;-0.60;99.90
13436;DHT22;6790;49.520;8.504;2023-03-01T06:32:41;-0.40;99.90
13436;DHT22;6790;49.520;8.504;2023-03-01T06:35:11;-0.40;99.90
13436;DHT22;6790;49.520;8.504;2023-03-01T06:37:38;-0.50;99.90
13436;DHT22;6790;49.520;8.504;2023-03-01T06:40:05;-0.40;99.90
13436;DHT22;6790;49.520;8.504;2023-03-01T06:42:38;-0.40;99.90
13436;DHT22;6790;49.520;8.504;2023-03-01T06:45:05;-0.30;99.90
13436;DHT22;6790;49.520;8.504;2023-03-01T06:47:32;-0.30;99.90
13436;DHT22;6790;49.520;8.504;2023-03-01T06:50:02;-0.30;99.90
13436;DHT22;6790;49.520;8.504;2023-03-01T06:52:28;-0.30;99.90
13436;DHT22;6790;49.520;8.504;2023-03-01T06:54:57;-0.20;99.90
13436;DHT22;6790;49.520;8.504;2023-03-01T06:57:23;-0.20;99.90
13436;DHT22;6790;49.520;8.504;2023-03-01T06:59:51;-0.10;99.90
13436;DHT22;6790;49.520;8.504;2023-03-01T07:02:17;0.00;99.90
13436;DHT22;6790;49.520;8.504;2023-03-01T07:04:43;0.00;99.90
13436;DHT22;6790;49.520;8.504;2023-03-01T07:07:09;0.10;99.90
13436;DHT22;6790;49.520;8.504;2023-03-01T07:09:36;0.20;99.90
13436;DHT22;6790;49.520;8.504;2023-03-01T07:12:02;0.20;99.90
13436;DHT22;6790;49.520;8.504;2023-03-01T07:14:28;0.30;99.90
13436;DHT22;6790;49.520;8.504;2023-03-01T07:16:54;0.30;99.90
13436;DHT22;6790;49.520;8.504;2023-03-01T07:19:21;0.20;99.90
13436;DHT22;6790;49.520;8.504;2023-03-01T07:21:47;0.30;99.90
13436;DHT22;6790;49.520;8.504;2023-03-01T07:24:13;0.20;99.90
13436;DHT22;6790;49.520;8.504;2023-03-01T07:26:39;0.20;99.90
13436;DHT22;6790;49.520;8.504;2023-03-01T07:29:06;0.20;99.90
13436;DHT22;6790;49.520;8.504;2023-03-01T07:31:34;0.20;99.90
13436;DHT22;6790;49.520;8.504;2023-03-01T07:34:00;0.20;99.90
13436;DHT22;6790;49.520;8.504;2023-03-01T07:36:26;0.20;99.90
13436;DHT22;6790;49.520;8.504;2023-03-01T07:38:52;0.30;99.90
13436;DHT22;6790;49.520;8.504;2023-03-01T07:41:18;0.30;99.90
13436;DHT22;6790;49.520;8.504;2023-03-01T07:43:44;0.40;99.90
13436;DHT22;6790;49.520;8.504;2023-03-01T07:46:09;0.60;99.90
13436;DHT22;6790;49.520;8.504;2023-03-01T07:48:35;0.70;99.90
13436;DHT22;6790;49.520;8.504;2023-03-01T07:51:03;0.80;99.90
13436;DHT22;6790;49.520;8.504;2023-03-01T07:53:31;0.90;99.90
13436;DHT22;6790;49.520;8.504;2023-03-01T07:58:37;1.10;99.90
13436;DHT22;6790;49.520;8.504;2023-03-01T08:01:05;1.20;99.90
13436;DHT22;6790;49.520;8.504;2023-03-01T08:03:32;1.30;99.90
13436;DHT22;6790;49.520;8.504;2023-03-01T08:06:02;1.50;99.90
13436;DHT22;6790;49.520;8.504;2023-03-01T08:08:30;1.60;99.90
13436;DHT22;6790;49.520;8.504;2023-03-01T08:10:57;1.70;99.90
13436;DHT22;6790;49.520;8.504;2023-03-01T08:13:23;1.80;99.90
13436;DHT22;6790;49.520;8.504;2023-03-01T08:15:50;1.90;99.90
13436;DHT22;6790;49.520;8.504;2023-03-01T08:18:19;2.10;99.90
13436;DHT22;6790;49.520;8.504;2023-03-01T08:20:46;2.20;99.90
13436;DHT22;6790;49.520;8.504;2023-03-01T08:23:12;2.40;99.90
13436;DHT22;6790;49.520;8.504;2023-03-01T08:25:41;2.50;99.90
13436;DHT22;6790;49.520;8.504;2023-03-01T08:28:06;2.70;99.90
13436;DHT22;6790;49.520;8.504;2023-03-01T08:30:33;2.70;99.90
13436;DHT22;6790;49.520;8.504;2023-03-01T08:32:59;2.70;99.90
13436;DHT22;6790;49.520;8.504;2023-03-01T08:35:25;2.70;99.90
13436;DHT22;6790;49.520;8.504;2023-03-01T08:37:50;2.90;99.90
13436;DHT22;6790;49.520;8.504;2023-03-01T08:40:16;2.80;99.90
13436;DHT22;6790;49.520;8.504;2023-03-01T08:42:42;3.00;99.90
13436;DHT22;6790;49.520;8.504;2023-03-01T08:45:11;3.10;99.90
13436;DHT22;6790;49.520;8.504;2023-03-01T08:47:39;3.20;99.90
13436;DHT22;6790;49.520;8.504;2023-03-01T08:50:05;3.20;99.90
13436;DHT22;6790;49.520;8.504;2023-03-01T08:52:32;3.50;99.90
13436;DHT22;6790;49.520;8.504;2023-03-01T08:54:58;3.70;99.90
13436;DHT22;6790;49.520;8.504;2023-03-01T08:57:24;3.70;99.90
13436;DHT22;6790;49.520;8.504;2023-03-01T08:59:49;3.80;99.90
13436;DHT22;6790;49.520;8.504;2023-03-01T09:02:17;3.80;99.90
13436;DHT22;6790;49.520;8.504;2023-03-01T09:04:43;3.90;99.90
13436;DHT22;6790;49.520;8.504;2023-03-01T09:07:10;4.00;99.90
13436;DHT22;6790;49.520;8.504;2023-03-01T09:09:36;4.00;99.90
13436;DHT22;6790;49.520;8.504;2023-03-01T09:12:02;3.90;99.90
13436;DHT22;6790;49.520;8.504;2023-03-01T09:14:28;4.00;99.90
13436;DHT22;6790;49.520;8.504;2023-03-01T09:16:54;4.40;99.90
13436;DHT22;6790;49.520;8.504;2023-03-01T09:19:20;5.20;99.50
13436;DHT22;6790;49.520;8.504;2023-03-01T09:21:46;5.90;95.30
13436;DHT22;6790;49.520;8.504;2023-03-01T09:24:22;6.50;93.50
13436;DHT22;6790;49.520;8.504;2023-03-01T09:26:53;6.50;90.50
13436;DHT22;6790;49.520;8.504;2023-03-01T09:29:20;5.50;93.00
13436;DHT22;6790;49.520;8.504;2023-03-01T09:31:46;5.20;94.90
13436;DHT22;6790;49.520;8.504;2023-03-01T09:34:11;4.80;94.50
13436;DHT22;6790;49.520;8.504;2023-03-01T09:36:40;4.70;95.50
13436;DHT22;6790;49.520;8.504;2023-03-01T09:39:06;4.30;96.00
13436;DHT22;6790;49.520;8.504;2023-03-01T09:41:45;4.50;96.80
13436;DHT22;6790;49.520;8.504;2023-03-01T09:46:57;5.00;95.30
13436;DHT22;6790;49.520;8.504;2023-03-01T09:49:26;4.90;94.10
13436;DHT22;6790;49.520;8.504;2023-03-01T09:52:09;4.70;94.60
13436;DHT22;6790;49.520;8.504;2023-03-01T09:54:40;4.80;94.40
13436;DHT22;6790;49.520;8.504;2023-03-01T09:57:26;5.00;94.40
13436;DHT22;6790;49.520;8.504;2023-03-01T10:00:16;5.20;94.00
13436;DHT22;6790;49.520;8.504;2023-03-01T10:02:51;5.40;93.00
13436;DHT22;6790;49.520;8.504;2023-03-01T10:05:56;5.50;93.20
13436;DHT22;6790;49.520;8.504;2023-03-01T10:08:53;5.10;94.10
13436;DHT22;6790;49.520;8.504;2023-03-01T10:11:24;5.20;93.70
13436;DHT22;6790;49.520;8.504;2023-03-01T10:19:27;5.40;93.30
13436;DHT22;6790;49.520;8.504;2023-03-01T10:22:00;5.50;92.30
13436;DHT22;6790;49.520;8.504;2023-03-01T10:24:32;5.20;91.70
13436;DHT22;6790;49.520;8.504;2023-03-01T10:27:05;5.50;91.70
13436;DHT22;6790;49.520;8.504;2023-03-01T10:32:27;5.90;90.20
13436;DHT22;6790;49.520;8.504;2023-03-01T10:34:52;5.80;90.80
13436;DHT22;6790;49.520;8.504;2023-03-01T10:37:20;6.10;90.10
13436;DHT22;6790;49.520;8.504;2023-03-01T10:40:06;5.90;89.50
13436;DHT22;6790;49.520;8.504;2023-03-01T10:42:39;6.10;90.00
13436;DHT22;6790;49.520;8.504;2023-03-01T10:48:11;6.20;89.00
13436;DHT22;6790;49.520;8.504;2023-03-01T10:50:44;6.60;89.60
13436;DHT22;6790;49.520;8.504;2023-03-01T10:53:35;6.90;88.90
13436;DHT22;6790;49.520;8.504;2023-03-01T10:56:08;6.80;85.60
13436;DHT22;6790;49.520;8.504;2023-03-01T10:59:03;6.60;85.10
13436;DHT22;6790;49.520;8.504;2023-03-01T11:01:32;6.50;85.30
13436;DHT22;6790;49.520;8.504;2023-03-01T11:06:31;6.70;84.20
13436;DHT22;6790;49.520;8.504;2023-03-01T11:09:18;6.80;83.20
13436;DHT22;6790;49.520;8.504;2023-03-01T11:11:45;6.50;87.10
13436;DHT22;6790;49.520;8.504;2023-03-01T11:14:20;7.00;85.70
13436;DHT22;6790;49.520;8.504;2023-03-01T11:17:14;7.20;83.40
13436;DHT22;6790;49.520;8.504;2023-03-01T11:19:42;7.10;83.60
13436;DHT22;6790;49.520;8.504;2023-03-01T11:22:17;7.00;82.90
13436;DHT22;6790;49.520;8.504;2023-03-01T11:24:51;6.80;81.30
13436;DHT22;6790;49.520;8.504;2023-03-01T11:27:26;7.10;82.60
13436;DHT22;6790;49.520;8.504;2023-03-01T11:30:15;6.90;82.80
13436;DHT22;6790;49.520;8.504;2023-03-01T11:35:38;7.40;80.50
13436;DHT22;6790;49.520;8.504;2023-03-01T11:38:34;7.80;79.10
13436;DHT22;6790;49.520;8.504;2023-03-01T11:41:20;7.90;75.40
13436;DHT22;6790;49.520;8.504;2023-03-01T12:01:41;8.00;76.90
13436;DHT22;6790;49.520;8.504;2023-03-01T12:07:41;8.30;75.60
13436;DHT22;6790;49.520;8.504;2023-03-01T12:25:53;7.90;75.30
13436;DHT22;6790;49.520;8.504;2023-03-01T12:31:40;7.80;73.10
13436;DHT22;6790;49.520;8.504;2023-03-01T12:43:38;8.00;72.50
13436;DHT22;6790;49.520;8.504;2023-03-01T12:49:17;8.20;69.60
13436;DHT22;6790;49.520;8.504;2023-03-01T12:52:16;8.30;72.00
13436;DHT22;6790;49.520;8.504;2023-03-01T12:54:49;8.10;72.60
13436;DHT22;6790;49.520;8.504;2023-03-01T12:57:46;8.20;70.60
13436;DHT22;6790;49.520;8.504;2023-03-01T13:00:45;8.30;71.80
13436;DHT22;6790;49.520;8.504;2023-03-01T13:06:44;8.20;69.10
13436;DHT22;6790;49.520;8.504;2023-03-01T13:09:23;8.40;69.60
13436;DHT22;6790;49.520;8.504;2023-03-01T13:11:55;8.40;69.10
13436;DHT22;6790;49.520;8.504;2023-03-01T13:16:49;8.60;67.60
13436;DHT22;6790;49.520;8.504;2023-03-01T13:19:21;8.20;67.40
13436;DHT22;6790;49.520;8.504;2023-03-01T13:21:49;8.30;66.30
13436;DHT22;6790;49.520;8.504;2023-03-01T13:24:41;8.50;67.80
13436;DHT22;6790;49.520;8.504;2023-03-01T13:29:48;8.30;66.20
13436;DHT22;6790;49.520;8.504;2023-03-01T13:32:31;8.40;66.90
13436;DHT22;6790;49.520;8.504;2023-03-01T13:35:02;8.60;63.90
13436;DHT22;6790;49.520;8.504;2023-03-01T13:37:33;8.50;66.50
13436;DHT22;6790;49.520;8.504;2023-03-01T13:40:03;8.60;64.80
13436;DHT22;6790;49.520;8.504;2023-03-01T13:45:04;8.50;64.90
13436;DHT22;6790;49.520;8.504;2023-03-01T13:47:39;8.60;65.90
13436;DHT22;6790;49.520;8.504;2023-03-01T13:50:14;8.60;64.10
13436;DHT22;6790;49.520;8.504;2023-03-01T13:52:43;8.60;63.30
13436;DHT22;6790;49.520;8.504;2023-03-01T13:57:49;8.80;63.10
13436;DHT22;6790;49.520;8.504;2023-03-01T14:00:36;8.70;61.50
13436;DHT22;6790;49.520;8.504;2023-03-01T14:05:39;8.60;61.40
13436;DHT22;6790;49.520;8.504;2023-03-01T14:08:22;8.60;61.50
13436;DHT22;6790;49.520;8.504;2023-03-01T14:17:31;9.00;61.80
13436;DHT22;6790;49.520;8.504;2023-03-01T14:20:23;10.50;59.10
13436;DHT22;6790;49.520;8.504;2023-03-01T14:22:57;10.20;56.10
13436;DHT22;6790;49.520;8.504;2023-03-01T14:25:37;9.50;58.00
13436;DHT22;6790;49.520;8.504;2023-03-01T14:30:51;9.30;59.40
13436;DHT22;6790;49.520;8.504;2023-03-01T14:33:54;11.40;56.40
13436;DHT22;6790;49.520;8.504;2023-03-01T14:36:32;10.90;52.40
13436;DHT22;6790;49.520;8.504;2023-03-01T14:38:59;10.80;51.40
13436;DHT22;6790;49.520;8.504;2023-03-01T14:41:32;9.70;55.20
13436;DHT22;6790;49.520;8.504;2023-03-01T14:44:02;9.50;56.70
13436;DHT22;6790;49.520;8.504;2023-03-01T14:46:34;9.30;57.10
13436;DHT22;6790;49.520;8.504;2023-03-01T14:49:10;9.20;57.60
13436;DHT22;6790;49.520;8.504;2023-03-01T14:51:39;9.50;56.90
13436;DHT22;6790;49.520;8.504;2023-03-01T14:54:25;9.40;58.30
13436;DHT22;6790;49.520;8.504;2023-03-01T14:56:54;9.20;57.10
13436;DHT22;6790;49.520;8.504;2023-03-01T14:59:24;9.30;56.90
13436;DHT22;6790;49.520;8.504;2023-03-01T15:01:51;10.70;56.80
13436;DHT22;6790;49.520;8.504;2023-03-01T15:04:25;10.50;51.10
13436;DHT22;6790;49.520;8.504;2023-03-01T15:06:53;10.00;53.70
13436;DHT22;6790;49.520;8.504;2023-03-01T15:09:21;10.10;53.60
13436;DHT22;6790;49.520;8.504;2023-03-01T15:11:47;9.50;54.40
13436;DHT22;6790;49.520;8.504;2023-03-01T15:14:40;9.10;55.60
13436;DHT22;6790;49.520;8.504;2023-03-01T15:17:30;8.90;57.70
13436;DHT22;6790;49.520;8.504;2023-03-01T15:19:58;8.90;58.10
13436;DHT22;6790;49.520;8.504;2023-03-01T15:22:26;8.90;59.20
13436;DHT22;6790;49.520;8.504;2023-03-01T15:24:52;8.90;58.90
13436;DHT22;6790;49.520;8.504;2023-03-01T15:27:21;8.70;59.60
13436;DHT22;6790;49.520;8.504;2023-03-01T15:29:59;8.80;59.40
13436;DHT22;6790;49.520;8.504;2023-03-01T15:32:33;8.60;60.20
13436;DHT22;6790;49.520;8.504;2023-03-01T15:35:41;8.70;60.30
13436;DHT22;6790;49.520;8.504;2023-03-01T15:38:31;8.70;58.90
13436;DHT22;6790;49.520;8.504;2023-03-01T15:41:27;8.60;61.00
13436;DHT22;6790;49.520;8.504;2023-03-01T15:44:00;8.60;60.00
13436;DHT22;6790;49.520;8.504;2023-03-01T15:46:33;8.70;59.40
13436;DHT22;6790;49.520;8.504;2023-03-01T15:49:03;8.60;62.10
13436;DHT22;6790;49.520;8.504;2023-03-01T15:51:34;8.50;63.00
13436;DHT22;6790;49.520;8.504;2023-03-01T15:54:17;8.50;61.30
13436;DHT22;6790;49.520;8.504;2023-03-01T15:56:44;8.40;62.20
13436;DHT22;6790;49.520;8.504;2023-03-01T15:59:11;8.30;62.70
13436;DHT22;6790;49.520;8.504;2023-03-01T16:01:42;8.30;61.60
13436;DHT22;6790;49.520;8.504;2023-03-01T16:04:12;8.30;60.60
13436;DHT22;6790;49.520;8.504;2023-03-01T16:06:54;8.30;62.00
13436;DHT22;6790;49.520;8.504;2023-03-01T16:09:24;8.30;62.70
13436;DHT22;6790;49.520;8.504;2023-03-01T16:11:51;8.20;61.60
13436;DHT22;6790;49.520;8.504;2023-03-01T16:14:18;8.20;61.20
13436;DHT22;6790;49.520;8.504;2023-03-01T16:16:44;8.10;62.90
13436;DHT22;6790;49.520;8.504;2023-03-01T16:19:11;8.00;61.80
13436;DHT22;6790;49.520;8.504;2023-03-01T16:21:37;8.00;62.80
13436;DHT22;6790;49.520;8.504;2023-03-01T16:24:03;7.90;63.30
13436;DHT22;6790;49.520;8.504;2023-03-01T16:26:29;7.90;62.60
13436;DHT22;6790;49.520;8.504;2023-03-01T16:28:56;7.90;63.10
13436;DHT22;6790;49.520;8.504;2023-03-01T16:31:23;7.80;63.90
13436;DHT22;6790;49.520;8.504;2023-03-01T16:33:49;7.50;65.10
13436;DHT22;6790;49.520;8.504;2023-03-01T16:36:18;7.50;65.70
13436;DHT22;6790;49.520;8.504;2023-03-01T16:38:45;7.40;66.80
13436;DHT22;6790;49.520;8.504;2023-03-01T16:41:16;7.40;68.10
13436;DHT22;6790;49.520;8.504;2023-03-01T16:43:43;7.30;68.00
13436;DHT22;6790;49.520;8.504;2023-03-01T16:46:13;7.20;69.70
13436;DHT22;6790;49.520;8.504;2023-03-01T16:48:40;7.10;69.60
13436;DHT22;6790;49.520;8.504;2023-03-01T16:51:06;6.90;71.00
13436;DHT22;6790;49.520;8.504;2023-03-01T16:53:33;6.70;72.50
13436;DHT22;6790;49.520;8.504;2023-03-01T16:56:03;6.70;73.20
13436;DHT22;6790;49.520;8.504;2023-03-01T16:58:31;6.70;73.20
13436;DHT22;6790;49.520;8.504;2023-03-01T17:01:02;6.60;75.40
13436;DHT22;6790;49.520;8.504;2023-03-01T17:03:31;6.60;75.00
13436;DHT22;6790;49.520;8.504;2023-03-01T17:06:01;6.40;75.60
13436;DHT22;6790;49.520;8.504;2023-03-01T17:08:28;6.40;77.00
13436;DHT22;6790;49.520;8.504;2023-03-01T17:10:54;6.20;77.00
13436;DHT22;6790;49.520;8.504;2023-03-01T17:13:19;6.10;77.80
13436;DHT22;6790;49.520;8.504;2023-03-01T17:15:45;5.80;80.00
13436;DHT22;6790;49.520;8.504;2023-03-01T17:18:11;5.70;83.70
13436;DHT22;6790;49.520;8.504;2023-03-01T17:20:36;5.50;84.70
13436;DHT22;6790;49.520;8.504;2023-03-01T17:23:03;5.40;85.10
13436;DHT22;6790;49.520;8.504;2023-03-01T17:25:28;5.30;86.40
13436;DHT22;6790;49.520;8.504;2023-03-01T17:27:54;5.30;88.60
13436;DHT22;6790;49.520;8.504;2023-03-01T17:30:20;5.20;88.80
13436;DHT22;6790;49.520;8.504;2023-03-01T17:32:46;5.20;90.00
13436;DHT22;6790;49.520;8.504;2023-03-01T17:35:12;5.00;90.30
13436;DHT22;6790;49.520;8.504;2023-03-01T17:37:38;5.00;90.60
13436;DHT22;6790;49.520;8.504;2023-03-01T17:40:05;5.00;90.30
13436;DHT22;6790;49.520;8.504;2023-03-01T17:42:32;5.20;90.10
13436;DHT22;6790;49.520;8.504;2023-03-01T17:44:57;5.30;90.10
13436;DHT22;6790;49.520;8.504;2023-03-01T17:47:24;5.40;90.00
13436;DHT22;6790;49.520;8.504;2023-03-01T17:49:50;5.30;90.10
13436;DHT22;6790;49.520;8.504;2023-03-01T17:52:16;5.10;90.00
13436;DHT22;6790;49.520;8.504;2023-03-01T17:54:41;5.20;90.40
13436;DHT22;6790;49.520;8.504;2023-03-01T17:57:07;5.20;90.30
13436;DHT22;6790;49.520;8.504;2023-03-01T17:59:35;5.10;91.00